createdAt,value
2019-01-20T00:00:50.081Z,95.92
2019-01-20T00:01:50.048Z,95.73
2019-01-20T00:02:50.017Z,95.92
2019-01-20T00:03:49.987Z,96.39
2019-01-20T00:04:49.963Z,96.20
2019-01-20T00:05:49.928Z,96.77
2019-01-20T00:06:49.894Z,97.05
2019-01-20T00:07:49.868Z,96.96
2019-01-20T00:08:49.834Z,96.96
2019-01-20T00:09:49.806Z,96.77
2019-01-20T00:10:49.791Z,97.53
2019-01-20T00:11:49.743Z,97.62
2019-01-20T00:12:49.712Z,98.00
2019-01-20T00:13:49.680Z,98.00
2019-01-20T00:14:49.650Z,97.91
2019-01-20T00:15:49.635Z,97.91
2019-01-20T00:16:49.592Z,97.72
2019-01-20T00:17:49.561Z,97.72
2019-01-20T00:18:49.526Z,97.53
2019-01-20T00:19:49.498Z,97.91
2019-01-20T00:22:21.532Z,97.72
2019-01-20T00:23:21.477Z,97.91
2019-01-20T00:25:14.905Z,97.53
2019-01-20T00:26:14.760Z,97.91
2019-01-20T00:28:08.105Z,97.91
2019-01-20T00:29:08.121Z,98.00
2019-01-20T00:31:01.397Z,98.28
2019-01-20T00:32:01.345Z,97.91
2019-01-20T00:33:54.690Z,98.57
2019-01-20T00:34:54.643Z,98.28
2019-01-20T00:36:48.997Z,98.28
2019-01-20T00:37:48.938Z,98.57
2019-01-20T00:39:42.284Z,98.94
2019-01-20T00:40:42.230Z,98.85
2019-01-20T00:42:35.570Z,98.66
2019-01-20T00:43:35.515Z,99.04
2019-01-20T00:45:28.858Z,99.04
2019-01-20T00:46:28.809Z,98.85
2019-01-20T00:48:22.122Z,98.47
2019-01-20T00:49:22.080Z,98.75
2019-01-20T00:51:15.426Z,99.41
2019-01-20T00:52:15.366Z,99.32
2019-01-20T00:54:08.687Z,99.32
2019-01-20T00:55:08.650Z,99.70
2019-01-20T00:57:02.003Z,99.99
2019-01-20T00:58:01.943Z,99.99
2019-01-20T00:59:55.276Z,99.99
2019-01-20T01:00:55.251Z,99.99
2019-01-20T01:02:48.671Z,99.70
2019-01-20T01:03:48.535Z,99.60
2019-01-20T01:05:41.873Z,99.60
2019-01-20T01:06:41.838Z,99.51
2019-01-20T01:08:36.141Z,99.70
2019-01-20T01:09:36.103Z,99.32
2019-01-20T01:11:31.656Z,99.99
2019-01-20T01:12:29.384Z,99.99
2019-01-20T01:14:22.705Z,99.99
2019-01-20T01:15:22.668Z,99.99
2019-01-20T01:17:16.062Z,99.99
2019-01-20T01:18:15.950Z,99.99
2019-01-20T01:20:10.280Z,99.99
2019-01-20T01:21:10.237Z,99.99
2019-01-20T01:23:04.614Z,99.99
2019-01-20T01:24:04.526Z,99.99
2019-01-20T01:26:02.431Z,99.99
2019-01-20T01:27:02.392Z,99.99
2019-01-20T01:28:55.740Z,99.99
2019-01-20T01:29:55.712Z,99.99
2019-01-20T01:31:49.108Z,99.99
2019-01-20T01:32:48.965Z,99.99
2019-01-20T01:34:43.438Z,99.99
2019-01-20T01:35:43.249Z,99.99
2019-01-20T01:37:36.605Z,99.99
2019-01-20T01:38:36.635Z,99.99
2019-01-20T01:40:29.875Z,99.99
2019-01-20T01:41:29.872Z,99.99
2019-01-20T01:43:23.196Z,99.99
2019-01-20T01:44:23.142Z,99.99
2019-01-20T01:46:16.460Z,99.99
2019-01-20T01:47:16.429Z,99.99
2019-01-20T01:49:09.764Z,99.99
2019-01-20T01:50:09.710Z,99.99
2019-01-20T01:52:07.949Z,99.99
2019-01-20T01:53:07.890Z,99.99
2019-01-20T01:55:01.230Z,99.99
2019-01-20T01:56:01.177Z,99.99
2019-01-20T01:57:54.515Z,99.99
2019-01-20T01:58:54.458Z,99.99
2019-01-20T02:00:48.777Z,99.99
2019-01-20T02:01:48.741Z,99.99
2019-01-20T02:03:42.080Z,99.99
2019-01-20T02:04:42.017Z,99.99
2019-01-20T02:06:35.343Z,99.99
2019-01-20T02:07:35.299Z,99.99
2019-01-20T02:09:28.651Z,99.99
2019-01-20T02:10:28.591Z,99.99
2019-01-20T02:12:22.939Z,99.99
2019-01-20T02:13:22.964Z,99.99
2019-01-20T02:15:16.222Z,99.99
2019-01-20T02:16:16.154Z,99.99
2019-01-20T02:18:10.491Z,99.99
2019-01-20T02:19:10.436Z,99.99
2019-01-20T02:21:03.769Z,99.99
2019-01-20T02:22:03.736Z,99.99
2019-01-20T02:23:58.098Z,99.99
2019-01-20T02:24:58.035Z,99.99
2019-01-20T02:25:58.009Z,99.99
2019-01-20T02:26:57.976Z,99.99
2019-01-20T02:27:58.808Z,99.99
2019-01-20T02:28:57.909Z,99.99
2019-01-20T02:29:57.876Z,99.99
2019-01-20T02:30:57.845Z,99.99
2019-01-20T02:31:57.814Z,99.99
2019-01-20T02:32:57.830Z,99.99
2019-01-20T02:33:57.755Z,99.99
2019-01-20T02:34:57.726Z,99.99
2019-01-20T02:35:57.686Z,99.99
2019-01-20T02:36:57.656Z,99.99
2019-01-20T02:37:57.625Z,99.99
2019-01-20T02:38:57.622Z,99.99
2019-01-20T02:39:57.562Z,99.99
2019-01-20T02:40:57.531Z,99.99
2019-01-20T02:41:57.502Z,99.99
2019-01-20T02:42:57.473Z,99.99
2019-01-20T02:43:57.440Z,99.99
2019-01-20T02:44:57.407Z,99.99
2019-01-20T02:45:57.381Z,99.99
2019-01-20T02:46:57.342Z,99.99
2019-01-20T02:47:57.344Z,99.99
2019-01-20T02:48:57.277Z,99.99
2019-01-20T02:49:57.249Z,99.99
2019-01-20T02:50:57.224Z,99.99
2019-01-20T02:51:57.184Z,99.99
2019-01-20T02:52:57.154Z,99.99
2019-01-20T02:53:57.119Z,99.99
2019-01-20T02:54:57.091Z,99.99
2019-01-20T02:55:57.057Z,99.99
2019-01-20T02:56:57.026Z,99.99
2019-01-20T02:57:56.994Z,99.99
2019-01-20T02:58:56.963Z,99.99
2019-01-20T02:59:56.934Z,99.99
2019-01-20T03:00:56.901Z,99.99
2019-01-20T03:01:56.874Z,99.99
2019-01-20T03:02:56.838Z,99.99
2019-01-20T03:03:56.805Z,99.99
2019-01-20T03:04:56.774Z,99.99
2019-01-20T03:05:56.743Z,99.99
2019-01-20T03:06:56.713Z,99.99
2019-01-20T03:07:56.683Z,99.99
2019-01-20T03:08:56.647Z,99.99
2019-01-20T03:09:56.615Z,99.99
2019-01-20T03:10:56.585Z,99.99
2019-01-20T03:12:03.515Z,99.99
2019-01-20T03:12:56.522Z,99.99
2019-01-20T03:13:56.490Z,99.99
2019-01-20T03:14:56.457Z,99.99
2019-01-20T03:15:56.427Z,99.99
2019-01-20T03:16:56.407Z,99.99
2019-01-20T03:17:56.370Z,99.99
2019-01-20T03:18:56.332Z,99.99
2019-01-20T03:19:56.300Z,99.99
2019-01-20T03:20:56.270Z,99.99
2019-01-20T03:21:56.238Z,99.99
2019-01-20T03:22:56.206Z,99.99
2019-01-20T03:23:56.184Z,99.99
2019-01-20T03:24:56.141Z,99.99
2019-01-20T03:25:56.111Z,99.99
2019-01-20T03:26:56.079Z,99.99
2019-01-20T03:27:56.052Z,99.99
2019-01-20T03:28:56.015Z,99.99
2019-01-20T03:29:55.986Z,99.99
2019-01-20T03:30:55.955Z,99.99
2019-01-20T03:31:55.923Z,99.99
2019-01-20T03:32:55.889Z,99.99
2019-01-20T03:33:55.857Z,99.99
2019-01-20T03:34:55.827Z,99.99
2019-01-20T03:35:55.794Z,99.99
2019-01-20T03:36:55.764Z,99.99
2019-01-20T03:37:55.731Z,99.99
2019-01-20T03:38:55.698Z,99.99
2019-01-20T03:39:55.668Z,99.99
2019-01-20T03:40:55.635Z,99.99
2019-01-20T03:41:55.604Z,99.99
2019-01-20T03:42:55.573Z,99.99
2019-01-20T03:43:55.546Z,99.99
2019-01-20T03:44:55.511Z,99.99
2019-01-20T03:45:55.477Z,99.99
2019-01-20T03:46:55.445Z,99.99
2019-01-20T03:47:55.415Z,99.99
2019-01-20T03:48:55.391Z,99.99
2019-01-20T03:49:55.350Z,99.99
2019-01-20T03:50:55.320Z,99.99
2019-01-20T03:51:55.288Z,99.99
2019-01-20T03:52:55.255Z,99.99
2019-01-20T03:53:55.224Z,99.99
2019-01-20T03:54:55.192Z,99.99
2019-01-20T03:55:55.161Z,99.99
2019-01-20T03:56:55.129Z,99.99
2019-01-20T03:57:55.097Z,99.99
2019-01-20T03:58:55.065Z,99.99
2019-01-20T03:59:55.037Z,99.99
2019-01-20T04:00:55.003Z,99.99
2019-01-20T04:01:55.114Z,99.99
2019-01-20T04:02:54.940Z,99.99
2019-01-20T04:03:54.906Z,99.99
2019-01-20T04:04:54.898Z,99.99
2019-01-20T04:05:54.842Z,99.99
2019-01-20T04:06:54.812Z,99.99
2019-01-20T04:07:54.782Z,99.99
2019-01-20T04:08:54.746Z,99.99
2019-01-20T04:09:54.726Z,99.99
2019-01-20T04:10:54.687Z,99.99
2019-01-20T04:11:54.654Z,99.99
2019-01-20T04:12:54.627Z,99.99
2019-01-20T04:13:54.590Z,99.99
2019-01-20T04:14:54.557Z,99.99
2019-01-20T04:15:54.527Z,99.99
2019-01-20T04:16:54.505Z,99.99
2019-01-20T04:17:54.463Z,99.99
2019-01-20T04:18:54.430Z,99.99
2019-01-20T04:19:54.402Z,99.99
2019-01-20T04:20:54.366Z,99.99
2019-01-20T04:21:54.346Z,99.99
2019-01-20T04:22:54.302Z,99.99
2019-01-20T04:23:54.272Z,99.99
2019-01-20T04:24:54.240Z,99.99
2019-01-20T04:25:54.210Z,99.99
2019-01-20T04:26:54.177Z,99.99
2019-01-20T04:27:54.147Z,99.99
2019-01-20T04:28:54.111Z,99.99
2019-01-20T04:29:54.081Z,99.99
2019-01-20T04:30:54.049Z,99.99
2019-01-20T04:31:54.050Z,99.99
2019-01-20T04:32:53.998Z,99.99
2019-01-20T04:33:53.957Z,99.99
2019-01-20T04:34:53.941Z,99.99
2019-01-20T04:35:53.890Z,99.99
2019-01-20T04:36:53.856Z,99.99
2019-01-20T04:37:53.828Z,99.99
2019-01-20T04:38:53.795Z,99.99
2019-01-20T04:39:53.763Z,99.99
2019-01-20T04:40:53.734Z,99.99
2019-01-20T04:41:53.704Z,99.99
2019-01-20T04:42:53.669Z,99.99
2019-01-20T04:43:53.636Z,99.99
2019-01-20T04:44:53.602Z,99.99
2019-01-20T04:45:53.574Z,99.99
2019-01-20T04:46:53.541Z,99.99
2019-01-20T04:47:53.509Z,99.99
2019-01-20T04:48:53.481Z,99.99
2019-01-20T04:49:53.444Z,99.99
2019-01-20T04:50:53.420Z,99.99
2019-01-20T04:51:53.380Z,99.99
2019-01-20T04:52:53.349Z,99.99
2019-01-20T04:53:53.319Z,99.99
2019-01-20T04:54:53.290Z,99.99
2019-01-20T04:55:53.253Z,99.99
2019-01-20T04:56:53.223Z,99.99
2019-01-20T04:57:53.192Z,99.99
2019-01-20T04:58:53.166Z,99.99
2019-01-20T04:59:53.125Z,99.99
2019-01-20T05:00:53.094Z,99.99
2019-01-20T05:01:53.062Z,99.99
2019-01-20T05:02:53.035Z,99.99
2019-01-20T05:03:52.998Z,99.99
2019-01-20T05:04:52.969Z,99.99
2019-01-20T05:05:52.935Z,99.99
2019-01-20T05:06:52.906Z,99.99
2019-01-20T05:07:52.873Z,99.99
2019-01-20T05:08:52.839Z,99.99
2019-01-20T05:09:52.810Z,99.99
2019-01-20T05:10:52.787Z,99.99
2019-01-20T05:11:52.748Z,99.99
2019-01-20T05:12:52.712Z,99.99
2019-01-20T05:13:52.699Z,99.99
2019-01-20T05:14:52.650Z,99.99
2019-01-20T05:15:52.618Z,99.99
2019-01-20T05:16:52.584Z,99.99
2019-01-20T05:17:52.564Z,99.99
2019-01-20T05:18:52.523Z,99.99
2019-01-20T05:19:52.487Z,99.99
2019-01-20T05:20:52.456Z,99.99
2019-01-20T05:21:52.426Z,99.99
2019-01-20T05:22:52.405Z,99.99
2019-01-20T05:23:52.373Z,99.99
2019-01-20T05:24:52.330Z,99.99
2019-01-20T05:25:52.298Z,99.99
2019-01-20T05:26:52.266Z,99.99
2019-01-20T05:27:52.237Z,99.99
2019-01-20T05:28:52.202Z,99.99
2019-01-20T05:29:52.172Z,99.99
2019-01-20T05:30:52.148Z,99.99
2019-01-20T05:31:52.105Z,99.99
2019-01-20T05:32:52.080Z,99.99
2019-01-20T05:33:52.043Z,99.99
2019-01-20T05:34:52.012Z,99.99
2019-01-20T05:35:51.978Z,99.99
2019-01-20T05:36:51.945Z,99.99
2019-01-20T05:37:51.919Z,99.99
2019-01-20T05:38:51.889Z,99.99
2019-01-20T05:39:51.849Z,99.99
2019-01-20T05:40:51.818Z,99.99
2019-01-20T05:41:51.786Z,99.99
2019-01-20T05:42:51.755Z,99.99
2019-01-20T05:43:51.722Z,99.99
2019-01-20T05:44:51.709Z,99.99
2019-01-20T05:45:51.659Z,99.99
2019-01-20T05:46:51.631Z,99.99
2019-01-20T05:47:51.594Z,99.99
2019-01-20T05:48:51.572Z,99.99
2019-01-20T05:49:51.532Z,99.99
2019-01-20T05:50:51.498Z,99.99
2019-01-20T05:51:51.468Z,99.99
2019-01-20T05:54:27.927Z,99.99
2019-01-20T05:55:27.871Z,99.99
2019-01-20T05:57:21.204Z,99.99
2019-01-20T05:58:21.163Z,99.99
2019-01-20T06:00:14.473Z,99.99
2019-01-20T06:01:14.428Z,99.99
2019-01-20T06:03:08.772Z,99.99
2019-01-20T06:04:08.707Z,99.99
2019-01-20T06:06:03.028Z,99.99
2019-01-20T06:07:02.986Z,99.99
2019-01-20T06:08:58.922Z,99.99
2019-01-20T06:09:57.264Z,99.99
2019-01-20T06:11:50.581Z,99.99
2019-01-20T06:12:54.140Z,99.99
2019-01-20T06:14:43.884Z,99.99
2019-01-20T06:15:44.910Z,99.99
2019-01-20T06:17:37.174Z,99.99
2019-01-20T06:18:37.104Z,99.99
2019-01-20T06:20:30.425Z,99.99
2019-01-20T06:21:30.383Z,99.99
2019-01-20T06:23:23.732Z,99.99
2019-01-20T06:24:23.671Z,99.99
2019-01-20T06:26:17.997Z,99.99
2019-01-20T06:27:17.965Z,99.99
2019-01-20T06:29:11.302Z,99.99
2019-01-20T06:30:11.234Z,99.99
2019-01-20T06:32:05.552Z,99.99
2019-01-20T06:33:05.512Z,99.99
2019-01-20T06:34:59.853Z,99.99
2019-01-20T06:35:59.793Z,99.99
2019-01-20T06:37:53.147Z,99.99
2019-01-20T06:38:53.080Z,99.99
2019-01-20T06:40:46.428Z,99.99
2019-01-20T06:41:46.365Z,99.99
2019-01-20T06:43:39.709Z,99.99
2019-01-20T06:44:39.644Z,99.99
2019-01-20T06:46:33.970Z,99.99
2019-01-20T06:47:33.922Z,99.99
2019-01-20T06:49:27.261Z,99.99
2019-01-20T06:50:27.203Z,99.99
2019-01-20T06:52:21.518Z,99.99
2019-01-20T06:53:21.480Z,99.99
2019-01-20T06:55:14.824Z,99.99
2019-01-20T06:56:14.758Z,99.99
2019-01-20T06:58:08.079Z,99.99
2019-01-20T06:59:08.042Z,99.99
2019-01-20T07:01:01.382Z,99.99
2019-01-20T07:02:01.321Z,99.99
2019-01-20T07:03:55.685Z,99.99
2019-01-20T07:04:55.600Z,99.99
2019-01-20T07:06:49.045Z,99.99
2019-01-20T07:07:48.897Z,99.99
2019-01-20T07:09:46.733Z,99.99
2019-01-20T07:10:46.542Z,99.99
2019-01-20T07:12:40.860Z,99.99
2019-01-20T07:13:40.830Z,99.99
2019-01-20T07:15:34.199Z,99.99
2019-01-20T07:16:34.110Z,99.99
2019-01-20T07:18:27.461Z,99.99
2019-01-20T07:19:27.444Z,99.99
2019-01-20T07:20:27.366Z,99.99
2019-01-20T07:21:27.331Z,99.99
2019-01-20T07:22:27.299Z,99.99
2019-01-20T07:23:27.268Z,99.99
2019-01-20T07:24:27.236Z,99.99
2019-01-20T07:25:27.201Z,99.99
2019-01-20T07:26:27.170Z,99.99
2019-01-20T07:27:29.955Z,99.99
2019-01-20T07:28:27.106Z,99.99
2019-01-20T07:29:27.073Z,99.99
2019-01-20T07:30:27.056Z,99.99
2019-01-20T07:31:27.009Z,99.99
2019-01-20T07:32:27.502Z,99.99
2019-01-20T07:33:26.945Z,99.99
2019-01-20T07:34:27.590Z,99.99
2019-01-20T07:35:26.882Z,99.99
2019-01-20T07:36:26.847Z,99.99
2019-01-20T07:37:26.815Z,99.99
2019-01-20T07:38:26.783Z,99.99
2019-01-20T07:39:26.751Z,99.99
2019-01-20T07:40:26.719Z,99.99
2019-01-20T07:41:26.685Z,99.99
2019-01-20T07:42:26.654Z,99.99
2019-01-20T07:43:26.631Z,99.99
2019-01-20T07:44:26.589Z,99.99
2019-01-20T07:45:26.557Z,99.99
2019-01-20T07:46:26.530Z,99.99
2019-01-20T07:47:26.609Z,99.99
2019-01-20T07:48:26.461Z,99.99
2019-01-20T07:49:26.430Z,99.99
2019-01-20T07:50:26.405Z,99.99
2019-01-20T07:51:26.363Z,99.99
2019-01-20T07:52:26.332Z,99.99
2019-01-20T07:53:27.004Z,99.99
2019-01-20T07:54:26.268Z,99.99
2019-01-20T07:55:26.235Z,99.99
2019-01-20T07:56:31.447Z,99.99
2019-01-20T07:57:26.173Z,99.99
2019-01-20T07:58:26.157Z,99.99
2019-01-20T07:59:26.106Z,99.99
2019-01-20T08:00:26.078Z,99.99
2019-01-20T08:01:26.043Z,99.99
2019-01-20T08:02:26.009Z,99.99
2019-01-20T08:03:25.982Z,99.99
2019-01-20T08:04:25.946Z,99.99
2019-01-20T08:05:25.913Z,99.99
2019-01-20T08:06:25.880Z,99.99
2019-01-20T08:07:25.849Z,99.99
2019-01-20T08:08:25.816Z,99.99
2019-01-20T08:09:25.789Z,99.99
2019-01-20T08:10:25.751Z,99.99
2019-01-20T08:11:25.720Z,99.99
2019-01-20T08:12:25.690Z,99.99
2019-01-20T08:13:25.659Z,99.99
2019-01-20T08:14:25.705Z,99.99
2019-01-20T08:15:25.595Z,99.99
2019-01-20T08:16:25.562Z,99.99
2019-01-20T08:17:25.528Z,99.99
2019-01-20T08:18:25.505Z,99.99
2019-01-20T08:19:25.464Z,99.99
2019-01-20T08:20:25.433Z,99.99
2019-01-20T08:21:25.399Z,99.99
2019-01-20T08:22:25.369Z,99.99
2019-01-20T08:23:25.336Z,99.99
2019-01-20T08:24:25.324Z,99.99
2019-01-20T08:25:25.272Z,99.99
2019-01-20T08:26:25.241Z,99.99
2019-01-20T08:27:25.209Z,99.99
2019-01-20T08:28:25.178Z,99.99
2019-01-20T08:29:25.145Z,99.99
2019-01-20T08:30:25.159Z,99.99
2019-01-20T08:31:25.084Z,99.99
2019-01-20T08:32:25.049Z,99.99
2019-01-20T08:33:25.018Z,99.99
2019-01-20T08:34:24.985Z,99.99
2019-01-20T08:35:24.975Z,99.99
2019-01-20T08:36:26.349Z,99.99
2019-01-20T08:37:28.817Z,99.99
2019-01-20T08:38:24.861Z,99.99
2019-01-20T08:39:24.831Z,99.99
2019-01-20T08:40:24.796Z,99.99
2019-01-20T08:41:24.768Z,99.99
2019-01-20T08:42:24.732Z,99.99
2019-01-20T08:43:31.569Z,99.99
2019-01-20T08:44:24.668Z,99.99
2019-01-20T08:45:24.642Z,99.99
2019-01-20T08:46:24.606Z,99.99
2019-01-20T08:47:24.584Z,99.99
2019-01-20T08:48:24.549Z,99.99
2019-01-20T08:49:24.511Z,99.99
2019-01-20T08:50:24.479Z,99.99
2019-01-20T08:51:24.446Z,99.99
2019-01-20T08:52:24.416Z,99.99
2019-01-20T08:53:24.385Z,99.99
2019-01-20T08:54:24.354Z,99.99
2019-01-20T08:55:24.321Z,99.99
2019-01-20T08:56:24.293Z,99.99
2019-01-20T08:57:24.270Z,99.99
2019-01-20T08:58:24.958Z,99.99
2019-01-20T08:59:25.470Z,99.99
2019-01-20T09:00:24.164Z,99.99
2019-01-20T09:01:24.133Z,99.99
2019-01-20T09:02:24.102Z,99.99
2019-01-20T09:03:24.070Z,99.99
2019-01-20T09:04:24.039Z,99.99
2019-01-20T09:05:24.519Z,99.99
2019-01-20T09:06:51.608Z,99.99
2019-01-20T09:07:23.970Z,99.99
2019-01-20T09:08:23.920Z,99.99
2019-01-20T09:09:23.881Z,99.99
2019-01-20T09:10:23.852Z,99.99
2019-01-20T09:11:23.820Z,99.99
2019-01-20T09:12:23.789Z,99.99
2019-01-20T09:13:23.759Z,99.99
2019-01-20T09:14:23.728Z,99.99
2019-01-20T09:15:23.701Z,99.99
2019-01-20T09:16:23.665Z,99.99
2019-01-20T09:17:23.638Z,99.99
2019-01-20T09:18:23.607Z,99.99
2019-01-20T09:19:23.571Z,99.99
2019-01-20T09:20:23.539Z,99.99
2019-01-20T09:21:23.508Z,99.99
2019-01-20T09:22:23.484Z,99.99
2019-01-20T09:23:23.456Z,99.99
2019-01-20T09:24:23.416Z,99.99
2019-01-20T09:25:23.384Z,99.99
2019-01-20T09:26:23.356Z,99.99
2019-01-20T09:27:23.332Z,99.99
2019-01-20T09:28:23.292Z,99.99
2019-01-20T09:29:23.259Z,99.99
2019-01-20T09:30:23.228Z,99.99
2019-01-20T09:31:23.198Z,99.99
2019-01-20T09:32:23.165Z,99.99
2019-01-20T09:33:24.647Z,99.99
2019-01-20T09:34:23.109Z,99.99
2019-01-20T09:35:23.078Z,99.99
2019-01-20T09:36:23.042Z,99.99
2019-01-20T09:37:23.011Z,99.99
2019-01-20T09:38:22.980Z,99.99
2019-01-20T09:39:22.973Z,99.99
2019-01-20T09:40:22.922Z,99.99
2019-01-20T09:41:22.887Z,99.99
2019-01-20T09:42:22.864Z,99.99
2019-01-20T09:43:22.826Z,99.99
2019-01-20T09:44:22.796Z,99.99
2019-01-20T09:45:22.763Z,99.99
2019-01-20T09:46:22.761Z,99.99
2019-01-20T09:47:22.840Z,99.99
2019-01-20T09:48:22.673Z,99.99
2019-01-20T09:49:22.642Z,99.99
2019-01-20T09:50:22.612Z,99.99
2019-01-20T09:51:22.581Z,99.99
2019-01-20T09:52:22.551Z,99.99
2019-01-20T09:53:22.518Z,99.65
2019-01-20T09:54:22.488Z,99.37
2019-01-20T09:55:22.457Z,99.08
2019-01-20T09:56:22.435Z,98.43
2019-01-20T09:57:22.395Z,98.24
2019-01-20T09:58:22.369Z,97.48
2019-01-20T09:59:22.336Z,97.29
2019-01-20T10:00:22.305Z,97.20
2019-01-20T10:01:22.281Z,96.63
2019-01-20T10:02:22.243Z,95.97
2019-01-20T10:03:22.214Z,95.97
2019-01-20T10:04:22.189Z,96.44
2019-01-20T10:05:22.201Z,96.91
2019-01-20T10:06:22.121Z,96.91
2019-01-20T10:07:22.091Z,96.44
2019-01-20T10:08:22.070Z,96.25
2019-01-20T10:09:22.156Z,96.25
2019-01-20T10:10:22.018Z,96.16
2019-01-20T10:11:22.034Z,96.63
2019-01-20T10:12:21.951Z,96.73
2019-01-20T10:13:21.909Z,96.73
2019-01-20T10:14:21.879Z,97.10
2019-01-20T10:15:21.850Z,97.01
2019-01-20T10:16:21.822Z,96.82
2019-01-20T10:17:21.819Z,96.68
2019-01-20T10:18:21.758Z,96.59
2019-01-20T10:19:21.752Z,96.78
2019-01-20T10:20:21.698Z,96.59
2019-01-20T10:21:21.670Z,96.11
2019-01-20T10:22:21.635Z,96.30
2019-01-20T10:23:21.612Z,95.64
2019-01-20T10:24:21.605Z,96.11
2019-01-20T10:25:21.545Z,95.64
2019-01-20T10:26:21.522Z,95.45
2019-01-20T10:27:21.485Z,95.45
2019-01-20T10:28:21.454Z,95.26
2019-01-20T10:29:21.428Z,95.92
2019-01-20T10:30:21.395Z,95.64
2019-01-20T10:31:21.367Z,95.26
2019-01-20T10:32:21.334Z,95.36
2019-01-20T10:33:21.310Z,95.36
2019-01-20T10:34:21.278Z,95.36
2019-01-20T10:35:21.250Z,94.98
2019-01-20T10:36:21.217Z,94.41
2019-01-20T10:37:21.243Z,94.70
2019-01-20T10:38:21.152Z,94.60
2019-01-20T10:39:21.231Z,94.60
2019-01-20T10:40:21.095Z,94.98
2019-01-20T10:41:22.039Z,95.36
2019-01-20T10:42:21.057Z,95.64
2019-01-20T10:43:21.004Z,95.54
2019-01-20T10:44:20.975Z,95.36
2019-01-20T10:45:20.943Z,95.73
2019-01-20T10:46:20.914Z,95.73
2019-01-20T10:47:20.883Z,95.45
2019-01-20T10:48:20.858Z,94.98
2019-01-20T10:49:20.847Z,94.89
2019-01-20T10:50:20.794Z,94.98
2019-01-20T10:51:20.763Z,95.26
2019-01-20T10:52:20.736Z,94.79
2019-01-20T10:53:20.705Z,94.79
2019-01-20T10:54:20.675Z,94.51
2019-01-20T10:55:20.646Z,94.60
2019-01-20T10:56:20.646Z,94.98
2019-01-20T10:57:20.584Z,94.03
2019-01-20T10:58:20.555Z,94.60
2019-01-20T10:59:20.535Z,94.22
2019-01-20T11:00:20.521Z,94.22
2019-01-20T11:01:21.049Z,94.22
2019-01-20T11:02:20.436Z,94.03
2019-01-20T11:03:20.448Z,93.18
2019-01-20T11:04:20.382Z,92.99
2019-01-20T11:05:25.094Z,92.33
2019-01-20T11:06:20.326Z,92.43
2019-01-20T11:07:20.341Z,93.18
2019-01-20T11:08:20.258Z,92.90
2019-01-20T11:09:20.245Z,93.37
2019-01-20T11:10:20.201Z,93.37
2019-01-20T11:11:20.173Z,93.32
2019-01-20T11:12:20.176Z,92.94
2019-01-20T11:13:20.115Z,92.57
2019-01-20T11:14:20.083Z,92.29
2019-01-20T11:15:20.055Z,92.38
2019-01-20T11:16:20.022Z,92.19
2019-01-20T11:17:19.994Z,92.19
2019-01-20T11:18:19.965Z,92.47
2019-01-20T11:19:19.937Z,92.47
2019-01-20T11:20:19.917Z,92.85
2019-01-20T11:21:19.878Z,92.57
2019-01-20T11:22:19.853Z,92.47
2019-01-20T11:23:19.846Z,92.47
2019-01-20T11:24:19.787Z,92.38
2019-01-20T11:25:19.757Z,92.38
2019-01-20T11:26:19.759Z,92.47
2019-01-20T11:27:19.702Z,92.47
2019-01-20T11:28:19.670Z,92.76
2019-01-20T11:29:19.640Z,92.19
2019-01-20T11:30:19.623Z,91.91
2019-01-20T11:31:19.581Z,91.43
2019-01-20T11:32:19.558Z,90.58
2019-01-20T11:33:19.533Z,89.92
2019-01-20T11:34:19.493Z,89.92
2019-01-20T11:35:19.522Z,90.20
2019-01-20T11:36:19.437Z,90.39
2019-01-20T11:37:19.407Z,90.30
2019-01-20T11:38:19.375Z,89.45
2019-01-20T11:39:19.384Z,88.98
2019-01-20T11:40:19.317Z,88.60
2019-01-20T11:41:19.290Z,89.07
2019-01-20T11:42:19.259Z,88.98
2019-01-20T11:43:19.238Z,88.41
2019-01-20T11:44:19.211Z,88.22
2019-01-20T11:45:19.171Z,88.22
2019-01-20T11:46:19.142Z,87.74
2019-01-20T11:47:19.114Z,87.27
2019-01-20T11:48:19.086Z,87.37
2019-01-20T11:49:19.055Z,86.14
2019-01-20T11:50:19.026Z,85.38
2019-01-20T11:51:18.998Z,85.00
2019-01-20T11:52:18.970Z,84.25
2019-01-20T11:53:18.939Z,84.81
2019-01-20T11:54:18.933Z,84.72
2019-01-20T11:55:18.882Z,84.53
2019-01-20T11:56:18.852Z,85.28
2019-01-20T11:57:18.830Z,85.47
2019-01-20T11:58:18.795Z,85.28
2019-01-20T11:59:18.772Z,84.44
2019-01-20T12:00:18.738Z,84.91
2019-01-20T12:01:18.709Z,84.20
2019-01-20T12:02:22.364Z,83.97
2019-01-20T12:03:18.654Z,82.59
2019-01-20T12:04:18.620Z,81.83
2019-01-20T12:05:18.593Z,80.51
2019-01-20T12:06:18.563Z,80.79
2019-01-20T12:07:18.537Z,81.45
2019-01-20T12:08:18.506Z,81.36
2019-01-20T12:09:18.481Z,81.64
2019-01-20T12:10:18.450Z,81.45
2019-01-20T12:11:18.418Z,80.88
2019-01-20T12:12:18.399Z,80.79
2019-01-20T12:13:18.359Z,81.36
2019-01-20T12:14:24.011Z,81.07
2019-01-20T12:15:18.302Z,81.74
2019-01-20T12:16:18.279Z,81.55
2019-01-20T12:17:18.245Z,81.55
2019-01-20T12:18:18.217Z,81.64
2019-01-20T12:19:18.187Z,81.83
2019-01-20T12:20:18.160Z,81.07
2019-01-20T12:21:18.129Z,81.07
2019-01-20T12:22:18.101Z,81.07
2019-01-20T12:23:18.079Z,80.04
2019-01-20T12:24:19.478Z,79.94
2019-01-20T12:25:18.016Z,79.37
2019-01-20T12:26:18.013Z,79.47
2019-01-20T12:27:17.958Z,80.22
2019-01-20T12:28:17.929Z,80.32
2019-01-20T12:29:17.902Z,80.13
2019-01-20T12:30:17.871Z,79.75
2019-01-20T12:31:17.844Z,78.99
2019-01-20T12:32:17.822Z,78.90
2019-01-20T12:33:17.785Z,78.14
2019-01-20T12:34:17.759Z,77.95
2019-01-20T12:35:17.727Z,78.05
2019-01-20T12:36:17.737Z,77.10
2019-01-20T12:37:17.669Z,77.10
2019-01-20T12:38:17.642Z,76.72
2019-01-20T12:39:17.613Z,77.10
2019-01-20T12:40:17.587Z,78.05
2019-01-20T12:41:17.557Z,77.95
2019-01-20T12:42:17.538Z,77.10
2019-01-20T12:43:17.499Z,77.20
2019-01-20T12:44:17.470Z,75.96
2019-01-20T12:45:17.441Z,76.44
2019-01-20T12:46:17.425Z,76.91
2019-01-20T12:47:17.387Z,77.76
2019-01-20T12:48:17.357Z,77.95
2019-01-20T12:49:17.354Z,78.14
2019-01-20T12:50:17.298Z,78.42
2019-01-20T12:51:17.270Z,77.95
2019-01-20T12:52:17.247Z,77.48
2019-01-20T12:53:17.217Z,77.20
2019-01-20T12:54:17.189Z,76.34
2019-01-20T12:55:17.160Z,76.25
2019-01-20T12:56:17.129Z,77.10
2019-01-20T12:57:17.156Z,77.10
2019-01-20T12:58:17.100Z,77.76
2019-01-20T12:59:17.047Z,77.20
2019-01-20T13:00:17.015Z,76.15
2019-01-20T13:01:16.986Z,75.40
2019-01-20T13:02:16.959Z,75.59
2019-01-20T13:03:16.932Z,75.02
2019-01-20T13:04:16.901Z,74.74
2019-01-20T13:05:16.873Z,74.40
2019-01-20T13:06:16.859Z,74.74
2019-01-20T13:07:16.815Z,74.77
2019-01-20T13:08:16.799Z,74.77
2019-01-20T13:09:16.762Z,75.49
2019-01-20T13:10:16.730Z,75.43
2019-01-20T13:11:16.703Z,75.53
2019-01-20T13:12:16.672Z,75.12
2019-01-20T13:13:16.643Z,75.05
2019-01-20T13:14:16.659Z,74.58
2019-01-20T13:15:16.588Z,74.77
2019-01-20T13:16:16.560Z,75.15
2019-01-20T13:17:16.532Z,74.49
2019-01-20T13:18:16.505Z,74.68
2019-01-20T13:19:16.480Z,75.05
2019-01-20T13:20:16.452Z,75.15
2019-01-20T13:21:16.461Z,74.77
2019-01-20T13:22:16.403Z,73.83
2019-01-20T13:23:16.362Z,74.21
2019-01-20T13:24:16.335Z,73.92
2019-01-20T13:25:16.311Z,73.73
2019-01-20T13:26:16.277Z,72.88
2019-01-20T13:27:16.373Z,72.31
2019-01-20T13:28:16.226Z,72.22
2019-01-20T13:29:16.199Z,71.65
2019-01-20T13:30:16.169Z,71.08
2019-01-20T13:31:16.136Z,69.66
2019-01-20T13:32:16.112Z,70.61
2019-01-20T13:33:16.084Z,70.51
2019-01-20T13:34:16.052Z,70.79
2019-01-20T13:35:16.028Z,71.55
2019-01-20T13:36:15.999Z,71.74
2019-01-20T13:37:15.968Z,72.03
2019-01-20T13:38:15.942Z,72.50
2019-01-20T13:39:15.919Z,72.60
2019-01-20T13:40:15.887Z,71.93
2019-01-20T13:41:15.859Z,71.93
2019-01-20T13:42:15.828Z,71.84
2019-01-20T13:43:15.801Z,71.84
2019-01-20T13:44:15.781Z,71.65
2019-01-20T13:45:15.746Z,71.65
2019-01-20T13:46:15.717Z,71.46
2019-01-20T13:47:15.689Z,70.70
2019-01-20T13:48:15.663Z,70.61
2019-01-20T13:49:15.634Z,70.36
2019-01-20T13:50:15.611Z,70.64
2019-01-20T13:51:15.582Z,70.55
2019-01-20T13:52:15.553Z,70.55
2019-01-20T13:53:15.524Z,70.26
2019-01-20T13:54:15.499Z,69.70
2019-01-20T13:55:15.493Z,69.51
2019-01-20T13:56:15.442Z,69.13
2019-01-20T13:57:15.414Z,69.32
2019-01-20T13:58:15.384Z,68.56
2019-01-20T13:59:15.391Z,68.46